createdAt,value
2019-02-08T00:00:21.348Z,28.30
2019-02-08T00:02:49.849Z,18.90
2019-02-08T00:05:18.505Z,28.03
2019-02-08T00:07:47.088Z,32.17
2019-02-08T00:10:17.182Z,28.40
2019-02-08T00:12:45.706Z,24.73
2019-02-08T00:15:20.214Z,18.30
2019-02-08T00:17:48.941Z,26.57
2019-02-08T00:20:18.545Z,20.00
2019-02-08T00:22:47.167Z,19.87
2019-02-08T00:25:17.731Z,27.10
2019-02-08T00:27:46.449Z,33.67
2019-02-08T00:30:18.782Z,34.83
2019-02-08T00:32:47.233Z,25.90
2019-02-08T00:35:15.701Z,24.97
2019-02-08T00:37:44.268Z,26.87
2019-02-08T00:40:15.473Z,26.20
2019-02-08T00:42:43.945Z,25.60
2019-02-08T00:45:15.475Z,26.00
2019-02-08T00:47:44.007Z,32.70
2019-02-08T00:50:24.402Z,31.13
2019-02-08T00:52:53.001Z,25.47
2019-02-08T00:55:21.905Z,34.57
2019-02-08T00:57:50.467Z,31.23
2019-02-08T01:00:20.644Z,25.80
2019-02-08T01:02:50.853Z,35.70
2019-02-08T01:05:21.084Z,28.67
2019-02-08T01:07:49.702Z,30.47
2019-02-08T01:10:21.574Z,28.97
2019-02-08T01:12:50.214Z,36.27
2019-02-08T01:15:20.761Z,31.97
2019-02-08T01:17:49.286Z,28.47
2019-02-08T01:20:22.659Z,25.03
2019-02-08T01:22:51.367Z,30.53
2019-02-08T01:25:25.448Z,32.80
2019-02-08T01:27:53.957Z,27.20
2019-02-08T01:30:33.386Z,35.83
2019-02-08T01:33:01.941Z,27.33
2019-02-08T01:35:30.574Z,46.30
2019-02-08T01:38:00.582Z,31.70
2019-02-08T01:40:35.054Z,22.33
2019-02-08T01:43:03.952Z,22.10
2019-02-08T01:45:33.355Z,25.80
2019-02-08T01:48:01.847Z,20.93
2019-02-08T01:50:31.249Z,23.07
2019-02-08T01:53:00.965Z,24.13
2019-02-08T01:55:29.624Z,31.97
2019-02-08T01:57:58.156Z,28.73
2019-02-08T02:00:31.723Z,26.70
2019-02-08T02:03:00.560Z,31.37
2019-02-08T02:05:29.009Z,29.03
2019-02-08T02:07:57.470Z,23.97
2019-02-08T02:10:28.405Z,18.60
2019-02-08T02:12:57.000Z,25.20
2019-02-08T02:15:25.605Z,32.53
2019-02-08T02:17:54.358Z,21.27
2019-02-08T02:20:28.309Z,23.77
2019-02-08T02:22:56.826Z,38.47
2019-02-08T02:25:25.359Z,22.37
2019-02-08T02:27:53.900Z,26.03
2019-02-08T02:30:25.564Z,28.80
2019-02-08T02:32:54.177Z,20.10
2019-02-08T02:35:23.281Z,22.33
2019-02-08T02:37:51.820Z,20.50
2019-02-08T02:40:21.565Z,18.77
2019-02-08T02:42:51.354Z,22.70
2019-02-08T02:45:25.848Z,26.73
2019-02-08T02:47:54.303Z,22.10
2019-02-08T02:50:22.931Z,24.47
2019-02-08T02:52:51.505Z,15.33
2019-02-08T02:55:25.204Z,18.63
2019-02-08T02:57:53.915Z,18.17
2019-02-08T03:00:37.255Z,22.00
2019-02-08T03:03:05.946Z,20.10
2019-02-08T03:05:34.490Z,18.43
2019-02-08T03:08:03.442Z,32.67
2019-02-08T03:10:31.897Z,33.50
2019-02-08T03:13:00.364Z,24.97
2019-02-08T03:15:28.924Z,19.27
2019-02-08T03:17:57.465Z,19.23
2019-02-08T03:20:25.922Z,24.13
2019-02-08T03:22:54.425Z,19.13
2019-02-08T03:25:25.426Z,24.47
2019-02-08T03:27:54.066Z,18.50
2019-02-08T03:30:32.106Z,21.57
2019-02-08T03:33:00.590Z,24.83
2019-02-08T03:35:29.268Z,23.73
2019-02-08T03:37:57.772Z,28.57
2019-02-08T03:40:30.509Z,28.67
2019-02-08T03:42:59.250Z,17.90
2019-02-08T03:45:29.481Z,18.43
2019-02-08T03:47:58.058Z,22.17
2019-02-08T03:50:26.580Z,16.40
2019-02-08T03:52:55.572Z,21.63
2019-02-08T03:55:24.882Z,32.87
2019-02-08T03:57:53.407Z,21.57
2019-02-08T04:00:32.014Z,24.47
2019-02-08T04:03:00.472Z,20.60
2019-02-08T04:05:29.308Z,24.10
2019-02-08T04:07:58.182Z,19.77
2019-02-08T04:10:26.714Z,23.13
2019-02-08T04:12:55.172Z,28.77
2019-02-08T04:15:25.298Z,30.00
2019-02-08T04:17:54.039Z,20.87
2019-02-08T04:20:27.041Z,17.90
2019-02-08T04:22:58.711Z,32.53
2019-02-08T04:25:27.342Z,23.47
2019-02-08T04:27:55.877Z,30.23
2019-02-08T04:30:26.994Z,25.70
2019-02-08T04:32:55.835Z,26.40
2019-02-08T04:35:24.820Z,24.47
2019-02-08T04:37:53.507Z,26.77
2019-02-08T04:40:23.708Z,21.93
2019-02-08T04:42:52.337Z,24.77
2019-02-08T04:45:21.383Z,23.17
2019-02-08T04:47:50.593Z,39.40
2019-02-08T04:50:29.983Z,16.60
2019-02-08T04:52:58.621Z,32.23
2019-02-08T04:55:27.216Z,27.23
2019-02-08T04:57:55.731Z,25.07
2019-02-08T05:00:32.626Z,26.80
2019-02-08T05:03:01.230Z,23.97
2019-02-08T05:05:29.761Z,19.37
2019-02-08T05:07:58.775Z,27.30
2019-02-08T05:10:29.925Z,26.10
2019-02-08T05:12:58.524Z,22.50
2019-02-08T05:15:28.674Z,22.27
2019-02-08T05:17:57.178Z,24.53
2019-02-08T05:20:30.564Z,30.40
2019-02-08T05:22:59.027Z,17.40
2019-02-08T05:25:27.701Z,19.13
2019-02-08T05:27:56.324Z,23.77
2019-02-08T05:30:35.576Z,37.00
2019-02-08T05:33:05.056Z,15.90
2019-02-08T05:35:33.521Z,29.97
2019-02-08T05:38:02.027Z,22.03
2019-02-08T05:40:30.545Z,17.03
2019-02-08T05:42:59.095Z,18.13
2019-02-08T05:45:27.963Z,21.90
2019-02-08T05:47:56.424Z,26.73
2019-02-08T05:50:28.817Z,18.00
2019-02-08T05:52:58.386Z,17.27
2019-02-08T05:55:31.059Z,23.03
2019-02-08T05:57:59.895Z,18.10
2019-02-08T06:00:32.738Z,24.83
2019-02-08T06:03:01.972Z,20.40
2019-02-08T06:05:30.509Z,25.43
2019-02-08T06:07:59.005Z,21.10
2019-02-08T06:10:27.470Z,17.50
2019-02-08T06:12:55.991Z,15.73
2019-02-08T06:15:25.553Z,24.30
2019-02-08T06:17:54.212Z,20.90
2019-02-08T06:20:24.805Z,23.97
2019-02-08T06:22:53.455Z,30.97
2019-02-08T06:25:22.865Z,26.33
2019-02-08T06:27:51.756Z,23.07
2019-02-08T06:30:28.598Z,27.33
2019-02-08T06:32:57.127Z,22.70
2019-02-08T06:35:27.117Z,17.10
2019-02-08T06:37:55.681Z,24.83
2019-02-08T06:40:26.466Z,28.03
2019-02-08T06:42:54.907Z,18.13
2019-02-08T06:45:25.535Z,20.03
2019-02-08T06:47:54.148Z,27.23
2019-02-08T06:50:27.151Z,11.40
2019-02-08T06:52:55.722Z,20.07
2019-02-08T06:55:25.319Z,19.13
2019-02-08T06:57:59.002Z,14.80
2019-02-08T07:00:37.378Z,21.33
2019-02-08T07:03:10.671Z,14.97
2019-02-08T07:05:46.653Z,18.03
2019-02-08T07:08:22.430Z,21.90
2019-02-08T07:11:08.798Z,15.43
2019-02-08T07:13:45.071Z,16.70
2019-02-08T07:16:24.258Z,18.10
2019-02-08T07:19:12.462Z,16.43
2019-02-08T07:21:42.605Z,24.97
2019-02-08T07:24:15.451Z,15.70
2019-02-08T07:27:00.680Z,15.63
2019-02-08T07:29:33.225Z,16.30
2019-02-08T07:32:03.399Z,16.90
2019-02-08T07:34:49.912Z,26.33
2019-02-08T07:37:20.111Z,19.13
2019-02-08T07:40:09.753Z,11.00
2019-02-08T07:42:56.322Z,24.53
2019-02-08T07:45:29.488Z,19.93
2019-02-08T07:48:11.959Z,15.83
2019-02-08T07:50:45.087Z,20.20
2019-02-08T07:53:20.852Z,14.83
2019-02-08T07:55:51.982Z,16.00
2019-02-08T07:58:22.368Z,19.20
2019-02-08T08:01:09.114Z,23.20
2019-02-08T08:04:01.261Z,17.03
2019-02-08T08:06:27.479Z,14.43
2019-02-08T08:09:15.741Z,19.40
2019-02-08T08:11:45.938Z,16.43
2019-02-08T08:14:31.432Z,15.20
2019-02-08T08:17:04.032Z,11.20
2019-02-08T08:19:37.020Z,18.67
2019-02-08T08:22:18.996Z,23.57
2019-02-08T08:24:56.162Z,16.10
2019-02-08T08:27:32.529Z,13.97
2019-02-08T08:30:05.834Z,21.60
2019-02-08T08:32:37.108Z,6.43
2019-02-08T08:35:08.743Z,22.37
2019-02-08T08:37:49.353Z,22.37
2019-02-08T08:40:27.051Z,21.67
2019-02-08T08:43:15.156Z,15.30
2019-02-08T08:45:49.829Z,12.43
2019-02-08T08:48:30.336Z,7.60
2019-02-08T08:51:19.837Z,16.93
2019-02-08T08:54:09.319Z,13.13
2019-02-08T08:56:46.295Z,12.33
2019-02-08T08:59:34.883Z,8.60
2019-02-08T09:02:27.697Z,20.73
2019-02-08T09:05:08.386Z,14.73
2019-02-08T09:07:45.943Z,9.27
2019-02-08T09:10:42.003Z,14.70
2019-02-08T09:13:22.676Z,16.30
2019-02-08T09:16:09.388Z,14.10
2019-02-08T09:18:49.572Z,14.83
2019-02-08T09:21:32.929Z,8.67
2019-02-08T09:24:33.565Z,17.57
2019-02-08T09:27:10.964Z,16.90
2019-02-08T09:29:42.762Z,14.60
2019-02-08T09:32:26.237Z,13.63
2019-02-08T09:35:31.034Z,6.67
2019-02-08T09:38:08.410Z,14.33
2019-02-08T09:40:48.645Z,8.53
2019-02-08T09:43:55.058Z,15.40
2019-02-08T09:46:35.397Z,18.30
2019-02-08T09:49:09.679Z,15.77
2019-02-08T09:51:47.413Z,9.67
2019-02-08T09:54:23.067Z,13.27
2019-02-08T09:57:09.458Z,17.77
2019-02-08T10:00:05.079Z,12.43
2019-02-08T10:02:45.597Z,13.73
2019-02-08T10:05:31.186Z,11.00
2019-02-08T10:08:21.925Z,16.27
2019-02-08T10:11:08.884Z,7.47
2019-02-08T10:14:15.478Z,13.73
2019-02-08T10:17:13.618Z,14.93
2019-02-08T10:20:00.221Z,10.93
2019-02-08T10:22:47.051Z,11.50
2019-02-08T10:25:47.224Z,6.50
2019-02-08T10:28:38.160Z,6.80
2019-02-08T10:31:28.980Z,19.90
2019-02-08T10:34:06.413Z,6.10
2019-02-08T10:36:46.834Z,11.00
2019-02-08T10:39:37.894Z,12.37
2019-02-08T10:42:25.924Z,11.50
2019-02-08T10:45:21.769Z,9.43
2019-02-08T10:48:11.399Z,5.00
2019-02-08T10:50:48.764Z,7.43
2019-02-08T10:53:39.625Z,6.83
2019-02-08T10:56:15.015Z,11.53
2019-02-08T10:58:56.137Z,9.13
2019-02-08T11:01:59.415Z,6.50
2019-02-08T11:04:52.947Z,8.67
2019-02-08T11:07:41.305Z,8.37
2019-02-08T11:10:30.292Z,9.77
2019-02-08T11:13:35.533Z,6.47
2019-02-08T11:16:32.826Z,7.87
2019-02-08T11:19:19.535Z,5.10
2019-02-08T11:21:49.525Z,12.90
2019-02-08T11:24:20.423Z,11.90
2019-02-08T11:26:49.093Z,10.20
2019-02-08T11:29:17.558Z,7.80
2019-02-08T11:31:45.999Z,8.43
2019-02-08T11:34:14.508Z,9.40
2019-02-08T11:36:42.954Z,4.73
2019-02-08T11:39:13.644Z,8.43
2019-02-08T11:41:42.788Z,10.00
2019-02-08T11:44:11.315Z,6.30
2019-02-08T11:46:39.791Z,12.00
2019-02-08T11:49:08.640Z,5.87
2019-02-08T11:51:37.111Z,8.50
2019-02-08T11:54:06.100Z,5.17
2019-02-08T11:56:34.590Z,8.43
2019-02-08T11:59:03.112Z,9.60
2019-02-08T12:01:33.201Z,6.47
2019-02-08T12:04:01.728Z,6.23
2019-02-08T12:06:30.233Z,4.40
2019-02-08T12:08:58.685Z,9.73
2019-02-08T12:11:27.165Z,7.03
2019-02-08T12:13:55.689Z,6.37
2019-02-08T12:16:24.785Z,6.43
2019-02-08T12:18:53.289Z,4.10
2019-02-08T12:21:21.818Z,7.17
2019-02-08T12:23:50.335Z,8.63
2019-02-08T12:26:18.838Z,13.93
2019-02-08T12:28:47.292Z,7.13
2019-02-08T12:31:15.796Z,12.50
2019-02-08T12:33:45.630Z,8.10
2019-02-08T12:36:14.227Z,9.23
2019-02-08T12:38:42.789Z,13.83
2019-02-08T12:41:12.928Z,7.77
2019-02-08T12:43:41.648Z,13.43
2019-02-08T12:46:10.189Z,3.50
2019-02-08T12:48:38.662Z,11.43
2019-02-08T12:51:07.193Z,8.23
2019-02-08T12:53:35.654Z,14.10
2019-02-08T12:56:05.001Z,5.50
2019-02-08T12:58:33.528Z,14.43
2019-02-08T13:01:02.063Z,5.10
2019-02-08T13:03:30.703Z,6.13
2019-02-08T13:05:59.154Z,8.63
2019-02-08T13:08:27.744Z,5.30
2019-02-08T13:10:56.318Z,8.63
2019-02-08T13:13:24.782Z,7.10
2019-02-08T13:15:53.233Z,10.23
2019-02-08T13:18:21.715Z,9.83
2019-02-08T13:20:50.169Z,7.67
2019-02-08T13:23:18.633Z,7.23
2019-02-08T13:25:47.122Z,9.77
2019-02-08T13:28:15.604Z,5.80
2019-02-08T13:30:44.128Z,5.13
2019-02-08T13:33:12.667Z,14.10
2019-02-08T13:35:41.124Z,7.33
2019-02-08T13:38:09.574Z,11.37
2019-02-08T13:40:38.119Z,6.70
2019-02-08T13:43:06.572Z,9.30
2019-02-08T13:45:35.024Z,10.40
2019-02-08T13:48:03.652Z,6.50
2019-02-08T13:50:33.994Z,12.90
2019-02-08T13:53:02.441Z,14.13
2019-02-08T13:55:31.112Z,12.97
2019-02-08T13:57:59.542Z,12.40
2019-02-08T14:00:31.155Z,5.63
2019-02-08T14:02:59.717Z,10.93
2019-02-08T14:05:28.226Z,12.10
2019-02-08T14:07:56.716Z,11.77
2019-02-08T14:10:25.516Z,7.73
2019-02-08T14:12:53.972Z,16.03
2019-02-08T14:15:24.633Z,12.30
2019-02-08T14:17:53.139Z,16.00
2019-02-08T14:20:24.489Z,18.53
2019-02-08T14:22:53.194Z,4.70
2019-02-08T14:25:22.532Z,15.23
2019-02-08T14:27:51.095Z,8.90
2019-02-08T14:30:34.485Z,7.40
2019-02-08T14:33:03.052Z,7.60
2019-02-08T14:35:31.755Z,5.70
2019-02-08T14:38:01.928Z,11.27
2019-02-08T14:40:32.019Z,9.00
2019-02-08T14:43:00.553Z,10.40
2019-02-08T14:45:29.220Z,3.97
2019-02-08T14:47:57.678Z,3.80
2019-02-08T14:50:30.742Z,16.17
2019-02-08T14:52:59.661Z,15.10
2019-02-08T14:55:28.260Z,17.43
2019-02-08T14:58:01.722Z,10.47
2019-02-08T15:00:30.204Z,11.17
2019-02-08T15:02:58.669Z,9.33
2019-02-08T15:05:27.120Z,9.73
2019-02-08T15:07:55.637Z,5.23
2019-02-08T15:10:33.286Z,4.60
2019-02-08T15:13:02.004Z,9.60
2019-02-08T15:15:30.512Z,9.17
2019-02-08T15:17:59.040Z,6.03
2019-02-08T15:20:30.363Z,14.53
2019-02-08T15:22:58.897Z,28.20
2019-02-08T15:25:27.523Z,24.63
2019-02-08T15:27:56.135Z,14.00
2019-02-08T15:30:27.313Z,12.50
2019-02-08T15:32:55.838Z,4.80
2019-02-08T15:35:26.474Z,17.23
2019-02-08T15:37:55.001Z,21.47
2019-02-08T15:40:41.288Z,7.53
2019-02-08T15:43:10.888Z,7.43
2019-02-08T15:45:40.533Z,5.80
2019-02-08T15:48:09.086Z,8.00
2019-02-08T15:50:37.624Z,7.60
2019-02-08T15:53:06.091Z,6.17
2019-02-08T15:55:37.430Z,12.13
2019-02-08T15:58:06.070Z,13.27
2019-02-08T16:00:34.592Z,11.07
2019-02-08T16:03:03.175Z,11.57
2019-02-08T16:05:32.225Z,7.03
2019-02-08T16:08:00.674Z,7.37
2019-02-08T16:10:29.243Z,15.03
2019-02-08T16:12:57.699Z,8.60
2019-02-08T16:15:30.466Z,26.67
2019-02-08T16:17:58.961Z,25.87
2019-02-08T16:20:30.368Z,21.17
2019-02-08T16:22:59.788Z,16.17
2019-02-08T16:25:30.111Z,29.63
2019-02-08T16:27:58.653Z,21.73
2019-02-08T16:30:34.864Z,27.77
2019-02-08T16:33:03.503Z,14.10
2019-02-08T16:35:31.958Z,11.50
2019-02-08T16:38:00.485Z,9.57
2019-02-08T16:40:30.518Z,13.50
2019-02-08T16:42:59.435Z,9.80
2019-02-08T16:45:32.793Z,9.90
2019-02-08T16:48:02.240Z,10.07
2019-02-08T16:50:32.427Z,9.40
2019-02-08T16:53:00.976Z,9.60
2019-02-08T16:55:29.546Z,11.00
2019-02-08T16:57:58.023Z,15.00
2019-02-08T17:00:37.129Z,19.63
2019-02-08T17:03:08.288Z,8.77
2019-02-08T17:05:36.976Z,24.43
2019-02-08T17:08:05.561Z,12.50
2019-02-08T17:10:34.096Z,6.40
2019-02-08T17:13:02.539Z,7.87
2019-02-08T17:15:32.570Z,25.43
2019-02-08T17:18:02.142Z,10.00
2019-02-08T17:20:33.255Z,16.77
2019-02-08T17:23:01.926Z,11.67
2019-02-08T17:25:30.645Z,10.47
2019-02-08T17:28:00.703Z,9.83
2019-02-08T17:30:29.265Z,6.97
2019-02-08T17:32:57.802Z,5.43
2019-02-08T17:35:29.287Z,10.70
2019-02-08T17:37:58.068Z,5.83
2019-02-08T17:40:41.120Z,8.40
2019-02-08T17:43:09.686Z,8.00
2019-02-08T17:45:38.135Z,7.10
2019-02-08T17:48:09.261Z,5.57
2019-02-08T17:50:37.934Z,5.80
2019-02-08T17:53:06.398Z,4.80
2019-02-08T17:55:34.985Z,8.50
2019-02-08T17:58:04.047Z,8.73
2019-02-08T18:00:49.186Z,13.93
2019-02-08T18:03:17.687Z,8.40
2019-02-08T18:05:46.280Z,7.37
2019-02-08T18:08:14.859Z,10.10
2019-02-08T18:10:45.355Z,6.33
2019-02-08T18:13:14.300Z,7.93
2019-02-08T18:15:42.822Z,8.37
2019-02-08T18:18:13.966Z,17.90
2019-02-08T18:20:48.524Z,6.70
2019-02-08T18:23:17.028Z,5.63
2019-02-08T18:25:45.553Z,12.40
2019-02-08T18:28:14.011Z,7.90
2019-02-08T18:30:42.498Z,5.80
2019-02-08T18:33:10.953Z,4.73
2019-02-08T18:35:39.407Z,11.57
2019-02-08T18:38:07.976Z,5.57
2019-02-08T18:40:36.500Z,5.43
2019-02-08T18:43:05.418Z,5.10
2019-02-08T18:45:37.721Z,4.80
2019-02-08T18:48:06.931Z,7.00
2019-02-08T18:50:44.332Z,6.83
2019-02-08T18:53:12.785Z,4.43
2019-02-08T18:55:41.248Z,4.80
2019-02-08T18:58:09.784Z,14.20
2019-02-08T19:00:46.609Z,7.00
2019-02-08T19:03:15.092Z,7.23
2019-02-08T19:05:43.626Z,5.97
2019-02-08T19:08:12.146Z,3.10
2019-02-08T19:10:40.713Z,3.30
2019-02-08T19:13:09.316Z,12.87
2019-02-08T19:15:37.839Z,6.53
2019-02-08T19:18:06.569Z,5.57
2019-02-08T19:20:35.055Z,5.87
2019-02-08T19:23:05.691Z,7.53
2019-02-08T19:25:39.717Z,5.60
2019-02-08T19:28:09.009Z,5.30
2019-02-08T19:30:41.646Z,5.90
2019-02-08T19:33:10.220Z,4.20
2019-02-08T19:35:38.758Z,3.00
2019-02-08T19:38:08.309Z,11.00
2019-02-08T19:40:39.006Z,3.77
2019-02-08T19:43:07.454Z,4.60
2019-02-08T19:45:35.963Z,3.87
2019-02-08T19:48:05.695Z,5.70
2019-02-08T19:50:41.948Z,8.80
2019-02-08T19:53:10.517Z,3.30
2019-02-08T19:55:39.403Z,4.53
2019-02-08T19:58:08.976Z,6.07
2019-02-08T20:00:39.518Z,6.90
2019-02-08T20:03:08.702Z,6.43
2019-02-08T20:05:37.238Z,7.30
2019-02-08T20:08:06.470Z,4.00
2019-02-08T20:10:47.120Z,4.47
2019-02-08T20:13:15.789Z,7.83
2019-02-08T20:15:44.306Z,7.53
2019-02-08T20:18:13.555Z,4.93
2019-02-08T20:20:42.063Z,5.20
2019-02-08T20:23:10.632Z,9.50
2019-02-08T20:25:39.103Z,6.30
2019-02-08T20:28:08.193Z,6.20
2019-02-08T20:30:36.809Z,4.03
2019-02-08T20:33:05.899Z,12.50
2019-02-08T20:35:34.478Z,5.30
2019-02-08T20:38:03.079Z,8.00
2019-02-08T20:40:43.433Z,4.80
2019-02-08T20:43:11.893Z,3.37
2019-02-08T20:45:40.360Z,4.80
2019-02-08T20:48:14.947Z,8.57
2019-02-08T20:50:43.431Z,11.17
2019-02-08T20:53:11.935Z,5.60
2019-02-08T20:55:40.439Z,4.63
2019-02-08T20:58:10.949Z,1.77
2019-02-08T21:00:42.401Z,3.43
2019-02-08T21:03:12.741Z,2.77
2019-02-08T21:05:42.328Z,5.00
2019-02-08T21:08:11.923Z,6.00
2019-02-08T21:10:40.484Z,4.30
2019-02-08T21:13:10.376Z,6.93
2019-02-08T21:15:38.908Z,8.50
2019-02-08T21:18:08.231Z,7.67
2019-02-08T21:20:37.414Z,4.13
2019-02-08T21:23:06.512Z,4.60
2019-02-08T21:25:39.525Z,4.23
2019-02-08T21:28:08.285Z,10.20
2019-02-08T21:30:36.823Z,7.27
2019-02-08T21:33:07.356Z,10.43
2019-02-08T21:35:35.876Z,4.20
2019-02-08T21:38:05.344Z,5.47
2019-02-08T21:40:33.887Z,8.23
2019-02-08T21:43:02.409Z,4.17
2019-02-08T21:45:42.369Z,6.07
2019-02-08T21:48:12.066Z,2.67
2019-02-08T21:50:40.577Z,5.13
2019-02-08T21:53:09.089Z,10.40
2019-02-08T21:55:37.615Z,6.73
2019-02-08T21:58:06.316Z,5.60
2019-02-08T22:00:37.552Z,10.43
2019-02-08T22:03:07.043Z,2.90
2019-02-08T22:05:38.673Z,2.83
2019-02-08T22:08:07.212Z,7.67
2019-02-08T22:10:35.675Z,8.03
2019-02-08T22:13:04.662Z,5.67
2019-02-08T22:15:43.971Z,4.20
2019-02-08T22:18:12.422Z,7.13
2019-02-08T22:20:40.957Z,8.40
2019-02-08T22:23:09.710Z,6.33
2019-02-08T22:25:38.152Z,7.40
2019-02-08T22:28:06.949Z,4.77
2019-02-08T22:30:35.632Z,9.03
2019-02-08T22:33:08.815Z,3.37
2019-02-08T22:35:37.329Z,6.10
2019-02-08T22:38:08.766Z,10.93
2019-02-08T22:40:37.246Z,4.27
2019-02-08T22:43:06.349Z,8.00
2019-02-08T22:45:36.791Z,8.57
2019-02-08T22:48:05.897Z,2.80
2019-02-08T22:50:34.342Z,7.80
2019-02-08T22:53:02.947Z,13.13
2019-02-08T22:55:35.755Z,10.67
2019-02-08T22:58:05.740Z,5.13
2019-02-08T23:00:38.592Z,8.43
2019-02-08T23:03:10.694Z,7.00
2019-02-08T23:05:45.350Z,7.80
2019-02-08T23:08:10.374Z,8.70
2019-02-08T23:10:38.887Z,6.10
2019-02-08T23:13:08.974Z,6.10
2019-02-08T23:15:37.645Z,9.60
2019-02-08T23:18:09.003Z,7.63
2019-02-08T23:20:37.896Z,3.50
2019-02-08T23:23:07.127Z,9.07
2019-02-08T23:25:35.641Z,6.40
2019-02-08T23:28:04.366Z,9.20
2019-02-08T23:30:32.858Z,5.57
2019-02-08T23:33:01.578Z,12.13
2019-02-08T23:35:30.106Z,7.00
2019-02-08T23:37:58.603Z,8.40
2019-02-08T23:40:27.062Z,5.07
2019-02-08T23:42:55.509Z,7.87
2019-02-08T23:45:24.063Z,10.87
2019-02-08T23:47:52.534Z,9.67
2019-02-08T23:50:22.322Z,4.23
2019-02-08T23:52:50.906Z,5.00
2019-02-08T23:55:21.087Z,9.83
2019-02-08T23:57:50.938Z,6.10
